Terminal Aerodrome Forecast
Issued by NWS

Home | Current Version | Previous Version | Text Only | Print | Product List | Glossary On
Versions: 1 2 3 4 5 6 7 8 9 10 11 12 13 14 15 16
000
FTUS45 KFGZ 161700
TAFSEZ
TAF
KSEZ 161735Z 1618/1718 21006KT P6SM SCT050 BKN200
      TEMPO 1620/1624 VRB15G30KT 5SM TSRA BKN060CB
     FM170400 04006KT P6SM SCT050 BKN100 PROB30 1712/1718 4SM -TSRA
      BKN040CB=

USA.gov is the U.S. government's official web portal to all federal, state and local government web resources and services.